sensor_id;sensor_type;location;lat;lon;timestamp;P1;durP1;ratioP1;P2;durP2;ratioP2
14732;SDS011;7457;50.960;6.830;2022-08-30T00:00:36;3.20;;;2.47;;
14732;SDS011;7457;50.960;6.830;2022-08-30T00:03:21;5.75;;;3.05;;
14732;SDS011;7457;50.960;6.830;2022-08-30T00:05:46;4.97;;;2.85;;
14732;SDS011;7457;50.960;6.830;2022-08-30T00:08:12;5.05;;;2.70;;
14732;SDS011;7457;50.960;6.830;2022-08-30T00:10:38;4.10;;;2.72;;
14732;SDS011;7457;50.960;6.830;2022-08-30T00:13:06;5.80;;;2.92;;
14732;SDS011;7457;50.960;6.830;2022-08-30T00:15:34;5.22;;;3.30;;
14732;SDS011;7457;50.960;6.830;2022-08-30T00:17:59;7.03;;;3.08;;
14732;SDS011;7457;50.960;6.830;2022-08-30T00:20:27;4.57;;;3.08;;
14732;SDS011;7457;50.960;6.830;2022-08-30T00:22:54;6.55;;;3.10;;
14732;SDS011;7457;50.960;6.830;2022-08-30T00:25:20;6.88;;;2.90;;
14732;SDS011;7457;50.960;6.830;2022-08-30T00:27:47;7.22;;;3.17;;
14732;SDS011;7457;50.960;6.830;2022-08-30T00:30:13;4.50;;;2.90;;
14732;SDS011;7457;50.960;6.830;2022-08-30T00:32:40;3.67;;;2.60;;
14732;SDS011;7457;50.960;6.830;2022-08-30T00:35:07;5.30;;;2.72;;
14732;SDS011;7457;50.960;6.830;2022-08-30T00:37:34;5.30;;;3.22;;
14732;SDS011;7457;50.960;6.830;2022-08-30T00:40:00;7.43;;;3.35;;
14732;SDS011;7457;50.960;6.830;2022-08-30T00:42:26;3.92;;;2.95;;
14732;SDS011;7457;50.960;6.830;2022-08-30T00:44:52;4.75;;;2.85;;
14732;SDS011;7457;50.960;6.830;2022-08-30T00:47:18;5.10;;;2.85;;
14732;SDS011;7457;50.960;6.830;2022-08-30T00:49:45;4.85;;;3.10;;
14732;SDS011;7457;50.960;6.830;2022-08-30T00:52:15;5.60;;;3.30;;
14732;SDS011;7457;50.960;6.830;2022-08-30T00:54:43;7.32;;;3.17;;
14732;SDS011;7457;50.960;6.830;2022-08-30T00:57:11;4.38;;;3.15;;
14732;SDS011;7457;50.960;6.830;2022-08-30T00:59:38;5.20;;;3.00;;
14732;SDS011;7457;50.960;6.830;2022-08-30T01:02:07;5.75;;;2.90;;
14732;SDS011;7457;50.960;6.830;2022-08-30T01:04:33;4.97;;;3.08;;
14732;SDS011;7457;50.960;6.830;2022-08-30T01:07:00;5.82;;;3.33;;
14732;SDS011;7457;50.960;6.830;2022-08-30T01:09:25;4.30;;;2.80;;
14732;SDS011;7457;50.960;6.830;2022-08-30T01:11:51;3.25;;;2.63;;
14732;SDS011;7457;50.960;6.830;2022-08-30T01:14:17;5.70;;;2.95;;
14732;SDS011;7457;50.960;6.830;2022-08-30T01:16:46;8.52;;;3.25;;
14732;SDS011;7457;50.960;6.830;2022-08-30T01:19:34;4.25;;;2.70;;
14732;SDS011;7457;50.960;6.830;2022-08-30T01:22:13;3.88;;;2.83;;
14732;SDS011;7457;50.960;6.830;2022-08-30T01:24:41;5.45;;;2.97;;
14732;SDS011;7457;50.960;6.830;2022-08-30T01:27:12;3.95;;;2.63;;
14732;SDS011;7457;50.960;6.830;2022-08-30T01:29:41;5.55;;;3.10;;
14732;SDS011;7457;50.960;6.830;2022-08-30T01:32:14;5.47;;;3.17;;
14732;SDS011;7457;50.960;6.830;2022-08-30T01:34:45;4.78;;;2.90;;
14732;SDS011;7457;50.960;6.830;2022-08-30T01:37:13;5.57;;;3.10;;
14732;SDS011;7457;50.960;6.830;2022-08-30T01:39:44;3.83;;;2.97;;
14732;SDS011;7457;50.960;6.830;2022-08-30T01:42:11;5.00;;;2.80;;
14732;SDS011;7457;50.960;6.830;2022-08-30T01:44:37;5.32;;;3.17;;
14732;SDS011;7457;50.960;6.830;2022-08-30T01:47:03;7.18;;;2.95;;
14732;SDS011;7457;50.960;6.830;2022-08-30T01:49:29;6.93;;;3.00;;
14732;SDS011;7457;50.960;6.830;2022-08-30T01:51:55;6.88;;;3.05;;
14732;SDS011;7457;50.960;6.830;2022-08-30T01:54:21;5.70;;;3.30;;
14732;SDS011;7457;50.960;6.830;2022-08-30T01:56:47;4.20;;;3.10;;
14732;SDS011;7457;50.960;6.830;2022-08-30T01:59:13;6.20;;;3.30;;
14732;SDS011;7457;50.960;6.830;2022-08-30T02:01:39;5.43;;;3.22;;
14732;SDS011;7457;50.960;6.830;2022-08-30T02:04:05;4.78;;;3.10;;
14732;SDS011;7457;50.960;6.830;2022-08-30T02:06:33;4.85;;;3.20;;
14732;SDS011;7457;50.960;6.830;2022-08-30T02:08:59;5.95;;;3.03;;
14732;SDS011;7457;50.960;6.830;2022-08-30T02:11:25;5.65;;;3.40;;
14732;SDS011;7457;50.960;6.830;2022-08-30T02:13:51;5.78;;;2.78;;
14732;SDS011;7457;50.960;6.830;2022-08-30T02:16:18;5.18;;;2.95;;
14732;SDS011;7457;50.960;6.830;2022-08-30T02:18:49;4.50;;;3.08;;
14732;SDS011;7457;50.960;6.830;2022-08-30T02:21:16;3.88;;;3.05;;
14732;SDS011;7457;50.960;6.830;2022-08-30T02:23:42;4.53;;;3.20;;
14732;SDS011;7457;50.960;6.830;2022-08-30T02:26:09;4.72;;;3.10;;
14732;SDS011;7457;50.960;6.830;2022-08-30T02:28:35;3.67;;;2.83;;
14732;SDS011;7457;50.960;6.830;2022-08-30T02:31:01;6.13;;;2.95;;
14732;SDS011;7457;50.960;6.830;2022-08-30T02:33:27;4.28;;;2.92;;
14732;SDS011;7457;50.960;6.830;2022-08-30T02:35:53;9.80;;;3.25;;
14732;SDS011;7457;50.960;6.830;2022-08-30T02:38:20;6.88;;;3.40;;
14732;SDS011;7457;50.960;6.830;2022-08-30T02:40:47;5.38;;;3.35;;
14732;SDS011;7457;50.960;6.830;2022-08-30T02:43:13;3.92;;;2.95;;
14732;SDS011;7457;50.960;6.830;2022-08-30T02:45:39;5.97;;;3.15;;
14732;SDS011;7457;50.960;6.830;2022-08-30T02:48:05;4.20;;;2.90;;
14732;SDS011;7457;50.960;6.830;2022-08-30T02:50:31;3.85;;;3.03;;
14732;SDS011;7457;50.960;6.830;2022-08-30T02:52:56;4.97;;;2.63;;
14732;SDS011;7457;50.960;6.830;2022-08-30T02:55:22;4.20;;;3.10;;
14732;SDS011;7457;50.960;6.830;2022-08-30T02:57:48;5.70;;;3.53;;
14732;SDS011;7457;50.960;6.830;2022-08-30T03:00:15;8.32;;;3.58;;
14732;SDS011;7457;50.960;6.830;2022-08-30T03:02:43;6.18;;;3.13;;
14732;SDS011;7457;50.960;6.830;2022-08-30T03:05:11;5.40;;;3.25;;
14732;SDS011;7457;50.960;6.830;2022-08-30T03:07:39;3.20;;;2.55;;
14732;SDS011;7457;50.960;6.830;2022-08-30T03:10:05;4.95;;;3.20;;
14732;SDS011;7457;50.960;6.830;2022-08-30T03:12:31;4.57;;;2.90;;
14732;SDS011;7457;50.960;6.830;2022-08-30T03:14:57;8.02;;;3.85;;
14732;SDS011;7457;50.960;6.830;2022-08-30T03:17:24;5.32;;;3.80;;
14732;SDS011;7457;50.960;6.830;2022-08-30T03:19:54;4.70;;;2.90;;
14732;SDS011;7457;50.960;6.830;2022-08-30T03:22:19;5.28;;;3.38;;
14732;SDS011;7457;50.960;6.830;2022-08-30T03:24:45;5.65;;;2.97;;
14732;SDS011;7457;50.960;6.830;2022-08-30T03:27:11;3.97;;;3.03;;
14732;SDS011;7457;50.960;6.830;2022-08-30T03:29:37;6.18;;;3.38;;
14732;SDS011;7457;50.960;6.830;2022-08-30T03:32:03;4.95;;;3.30;;
14732;SDS011;7457;50.960;6.830;2022-08-30T03:34:29;8.88;;;3.20;;
14732;SDS011;7457;50.960;6.830;2022-08-30T03:36:55;4.35;;;2.97;;
14732;SDS011;7457;50.960;6.830;2022-08-30T03:39:22;4.43;;;3.30;;
14732;SDS011;7457;50.960;6.830;2022-08-30T03:41:48;5.05;;;3.15;;
14732;SDS011;7457;50.960;6.830;2022-08-30T03:44:14;5.70;;;3.75;;
14732;SDS011;7457;50.960;6.830;2022-08-30T03:46:40;6.55;;;3.28;;
14732;SDS011;7457;50.960;6.830;2022-08-30T03:49:06;5.20;;;3.75;;
14732;SDS011;7457;50.960;6.830;2022-08-30T03:51:32;6.32;;;3.00;;
14732;SDS011;7457;50.960;6.830;2022-08-30T03:53:58;6.72;;;3.70;;
14732;SDS011;7457;50.960;6.830;2022-08-30T03:56:25;6.53;;;3.50;;
14732;SDS011;7457;50.960;6.830;2022-08-30T03:58:51;5.47;;;3.17;;
14732;SDS011;7457;50.960;6.830;2022-08-30T04:01:17;5.10;;;3.25;;
14732;SDS011;7457;50.960;6.830;2022-08-30T04:03:43;8.60;;;3.28;;
14732;SDS011;7457;50.960;6.830;2022-08-30T04:06:08;4.63;;;3.10;;
14732;SDS011;7457;50.960;6.830;2022-08-30T04:08:34;6.78;;;3.60;;
14732;SDS011;7457;50.960;6.830;2022-08-30T04:11:00;10.68;;;3.60;;
14732;SDS011;7457;50.960;6.830;2022-08-30T04:13:26;5.85;;;3.42;;
14732;SDS011;7457;50.960;6.830;2022-08-30T04:15:53;4.00;;;2.95;;
14732;SDS011;7457;50.960;6.830;2022-08-30T04:18:18;5.80;;;3.25;;
14732;SDS011;7457;50.960;6.830;2022-08-30T04:20:44;9.13;;;3.58;;
14732;SDS011;7457;50.960;6.830;2022-08-30T04:23:11;5.38;;;3.50;;
14732;SDS011;7457;50.960;6.830;2022-08-30T04:25:37;4.75;;;3.35;;
14732;SDS011;7457;50.960;6.830;2022-08-30T04:28:04;5.38;;;3.00;;
14732;SDS011;7457;50.960;6.830;2022-08-30T04:30:31;6.00;;;3.58;;
14732;SDS011;7457;50.960;6.830;2022-08-30T04:32:57;5.72;;;3.60;;
14732;SDS011;7457;50.960;6.830;2022-08-30T04:35:22;9.45;;;4.70;;
14732;SDS011;7457;50.960;6.830;2022-08-30T04:37:48;6.85;;;3.95;;
14732;SDS011;7457;50.960;6.830;2022-08-30T04:40:14;7.80;;;3.53;;
14732;SDS011;7457;50.960;6.830;2022-08-30T04:42:40;8.00;;;3.92;;
14732;SDS011;7457;50.960;6.830;2022-08-30T04:45:09;6.47;;;3.40;;
14732;SDS011;7457;50.960;6.830;2022-08-30T04:47:36;5.65;;;3.70;;
14732;SDS011;7457;50.960;6.830;2022-08-30T04:50:03;5.15;;;3.38;;
14732;SDS011;7457;50.960;6.830;2022-08-30T04:52:30;6.45;;;3.30;;
14732;SDS011;7457;50.960;6.830;2022-08-30T04:54:56;4.97;;;3.40;;
14732;SDS011;7457;50.960;6.830;2022-08-30T04:57:23;5.05;;;3.15;;
14732;SDS011;7457;50.960;6.830;2022-08-30T04:59:50;5.03;;;3.35;;
14732;SDS011;7457;50.960;6.830;2022-08-30T05:02:17;6.32;;;3.15;;
14732;SDS011;7457;50.960;6.830;2022-08-30T05:04:43;7.93;;;3.28;;
14732;SDS011;7457;50.960;6.830;2022-08-30T05:07:27;5.55;;;3.22;;
14732;SDS011;7457;50.960;6.830;2022-08-30T05:09:54;3.55;;;3.03;;
14732;SDS011;7457;50.960;6.830;2022-08-30T05:12:20;9.63;;;4.05;;
14732;SDS011;7457;50.960;6.830;2022-08-30T05:14:45;5.28;;;2.95;;
14732;SDS011;7457;50.960;6.830;2022-08-30T05:17:11;4.43;;;3.25;;
14732;SDS011;7457;50.960;6.830;2022-08-30T05:19:37;5.43;;;3.55;;
14732;SDS011;7457;50.960;6.830;2022-08-30T05:22:03;4.65;;;3.20;;
14732;SDS011;7457;50.960;6.830;2022-08-30T05:24:28;9.18;;;3.63;;
14732;SDS011;7457;50.960;6.830;2022-08-30T05:26:56;5.22;;;3.47;;
14732;SDS011;7457;50.960;6.830;2022-08-30T05:29:22;5.65;;;3.50;;
14732;SDS011;7457;50.960;6.830;2022-08-30T05:31:47;4.38;;;3.00;;
14732;SDS011;7457;50.960;6.830;2022-08-30T05:34:13;4.97;;;3.10;;
14732;SDS011;7457;50.960;6.830;2022-08-30T05:36:39;6.70;;;3.78;;
14732;SDS011;7457;50.960;6.830;2022-08-30T05:39:05;6.80;;;3.60;;
14732;SDS011;7457;50.960;6.830;2022-08-30T05:41:33;4.90;;;3.65;;
14732;SDS011;7457;50.960;6.830;2022-08-30T05:44:00;5.72;;;3.88;;
14732;SDS011;7457;50.960;6.830;2022-08-30T05:46:30;6.93;;;3.67;;
14732;SDS011;7457;50.960;6.830;2022-08-30T05:48:58;6.82;;;3.33;;
14732;SDS011;7457;50.960;6.830;2022-08-30T05:51:26;9.50;;;4.15;;
14732;SDS011;7457;50.960;6.830;2022-08-30T05:53:54;6.20;;;3.60;;
14732;SDS011;7457;50.960;6.830;2022-08-30T05:56:22;8.25;;;3.83;;
14732;SDS011;7457;50.960;6.830;2022-08-30T05:58:54;4.38;;;3.80;;
14732;SDS011;7457;50.960;6.830;2022-08-30T06:01:21;8.93;;;3.92;;
14732;SDS011;7457;50.960;6.830;2022-08-30T06:03:50;8.10;;;3.90;;
14732;SDS011;7457;50.960;6.830;2022-08-30T06:06:16;6.55;;;3.75;;
14732;SDS011;7457;50.960;6.830;2022-08-30T06:08:42;6.25;;;3.30;;
14732;SDS011;7457;50.960;6.830;2022-08-30T06:11:10;8.65;;;3.95;;
14732;SDS011;7457;50.960;6.830;2022-08-30T06:13:37;4.93;;;3.47;;
14732;SDS011;7457;50.960;6.830;2022-08-30T06:16:03;4.28;;;3.30;;
14732;SDS011;7457;50.960;6.830;2022-08-30T06:18:29;7.65;;;3.50;;
14732;SDS011;7457;50.960;6.830;2022-08-30T06:20:55;5.65;;;3.03;;
14732;SDS011;7457;50.960;6.830;2022-08-30T06:23:22;14.27;;;3.88;;
14732;SDS011;7457;50.960;6.830;2022-08-30T06:25:48;5.28;;;3.55;;
14732;SDS011;7457;50.960;6.830;2022-08-30T06:28:14;8.32;;;4.03;;
14732;SDS011;7457;50.960;6.830;2022-08-30T06:30:40;5.60;;;3.80;;
14732;SDS011;7457;50.960;6.830;2022-08-30T06:33:07;10.88;;;3.50;;
14732;SDS011;7457;50.960;6.830;2022-08-30T06:35:34;7.07;;;3.78;;
14732;SDS011;7457;50.960;6.830;2022-08-30T06:38:00;8.38;;;4.10;;
14732;SDS011;7457;50.960;6.830;2022-08-30T06:40:29;6.43;;;3.80;;
14732;SDS011;7457;50.960;6.830;2022-08-30T06:42:55;11.07;;;4.75;;
14732;SDS011;7457;50.960;6.830;2022-08-30T06:45:21;7.07;;;3.75;;
14732;SDS011;7457;50.960;6.830;2022-08-30T06:47:47;6.55;;;4.30;;
14732;SDS011;7457;50.960;6.830;2022-08-30T06:50:13;6.47;;;4.32;;
14732;SDS011;7457;50.960;6.830;2022-08-30T06:52:41;8.77;;;4.90;;
14732;SDS011;7457;50.960;6.830;2022-08-30T06:55:08;8.38;;;4.60;;
14732;SDS011;7457;50.960;6.830;2022-08-30T06:57:35;10.18;;;5.25;;
14732;SDS011;7457;50.960;6.830;2022-08-30T07:00:01;8.60;;;4.70;;
14732;SDS011;7457;50.960;6.830;2022-08-30T07:02:28;8.35;;;4.65;;
14732;SDS011;7457;50.960;6.830;2022-08-30T07:04:53;8.68;;;5.00;;
14732;SDS011;7457;50.960;6.830;2022-08-30T07:07:19;9.63;;;5.38;;
14732;SDS011;7457;50.960;6.830;2022-08-30T07:09:45;10.38;;;5.07;;
14732;SDS011;7457;50.960;6.830;2022-08-30T07:12:11;13.73;;;4.88;;
14732;SDS011;7457;50.960;6.830;2022-08-30T07:14:38;11.40;;;4.93;;
14732;SDS011;7457;50.960;6.830;2022-08-30T07:17:04;10.05;;;4.80;;
14732;SDS011;7457;50.960;6.830;2022-08-30T07:19:50;9.13;;;4.63;;
14732;SDS011;7457;50.960;6.830;2022-08-30T07:22:16;7.93;;;4.43;;
14732;SDS011;7457;50.960;6.830;2022-08-30T07:24:42;6.53;;;4.18;;
14732;SDS011;7457;50.960;6.830;2022-08-30T07:27:07;6.80;;;3.15;;
14732;SDS011;7457;50.960;6.830;2022-08-30T07:29:33;6.75;;;3.42;;
14732;SDS011;7457;50.960;6.830;2022-08-30T07:31:59;7.43;;;3.20;;
14732;SDS011;7457;50.960;6.830;2022-08-30T07:34:24;7.13;;;3.17;;
14732;SDS011;7457;50.960;6.830;2022-08-30T07:36:51;4.85;;;2.83;;
14732;SDS011;7457;50.960;6.830;2022-08-30T07:39:17;5.03;;;2.78;;
14732;SDS011;7457;50.960;6.830;2022-08-30T07:41:43;4.45;;;2.80;;
14732;SDS011;7457;50.960;6.830;2022-08-30T07:44:09;7.35;;;2.90;;
14732;SDS011;7457;50.960;6.830;2022-08-30T07:46:36;8.35;;;2.60;;
14732;SDS011;7457;50.960;6.830;2022-08-30T07:49:03;4.97;;;3.00;;
14732;SDS011;7457;50.960;6.830;2022-08-30T07:51:29;3.05;;;2.72;;
14732;SDS011;7457;50.960;6.830;2022-08-30T07:53:55;2.50;;;2.10;;
14732;SDS011;7457;50.960;6.830;2022-08-30T07:56:21;8.98;;;2.92;;
14732;SDS011;7457;50.960;6.830;2022-08-30T07:58:47;5.15;;;2.95;;
14732;SDS011;7457;50.960;6.830;2022-08-30T08:01:14;3.95;;;2.67;;
14732;SDS011;7457;50.960;6.830;2022-08-30T08:03:40;4.25;;;2.80;;
14732;SDS011;7457;50.960;6.830;2022-08-30T08:06:07;5.10;;;3.13;;
14732;SDS011;7457;50.960;6.830;2022-08-30T08:08:35;6.90;;;3.28;;
14732;SDS011;7457;50.960;6.830;2022-08-30T08:11:06;5.85;;;3.00;;
14732;SDS011;7457;50.960;6.830;2022-08-30T08:13:33;6.25;;;2.58;;
14732;SDS011;7457;50.960;6.830;2022-08-30T08:15:59;7.10;;;3.10;;
14732;SDS011;7457;50.960;6.830;2022-08-30T08:18:25;6.30;;;3.15;;
14732;SDS011;7457;50.960;6.830;2022-08-30T08:20:50;3.80;;;2.53;;
14732;SDS011;7457;50.960;6.830;2022-08-30T08:23:16;6.57;;;3.03;;
14732;SDS011;7457;50.960;6.830;2022-08-30T08:25:45;4.85;;;2.47;;
14732;SDS011;7457;50.960;6.830;2022-08-30T08:28:11;4.75;;;2.33;;
14732;SDS011;7457;50.960;6.830;2022-08-30T08:30:37;6.45;;;2.78;;
14732;SDS011;7457;50.960;6.830;2022-08-30T08:33:03;2.50;;;1.98;;
14732;SDS011;7457;50.960;6.830;2022-08-30T08:35:30;4.30;;;2.60;;
14732;SDS011;7457;50.960;6.830;2022-08-30T08:37:56;6.18;;;2.90;;
14732;SDS011;7457;50.960;6.830;2022-08-30T08:40:22;4.25;;;2.58;;
14732;SDS011;7457;50.960;6.830;2022-08-30T08:45:33;6.85;;;2.75;;
14732;SDS011;7457;50.960;6.830;2022-08-30T08:51:07;4.50;;;2.17;;
14732;SDS011;7457;50.960;6.830;2022-08-30T08:53:55;4.53;;;2.17;;
14732;SDS011;7457;50.960;6.830;2022-08-30T08:56:28;4.30;;;2.55;;
14732;SDS011;7457;50.960;6.830;2022-08-30T08:58:55;2.20;;;2.00;;
14732;SDS011;7457;50.960;6.830;2022-08-30T09:01:23;3.40;;;2.17;;
14732;SDS011;7457;50.960;6.830;2022-08-30T09:03:53;3.42;;;2.35;;
14732;SDS011;7457;50.960;6.830;2022-08-30T09:06:22;6.97;;;4.78;;
14732;SDS011;7457;50.960;6.830;2022-08-30T09:08:54;9.13;;;5.22;;
14732;SDS011;7457;50.960;6.830;2022-08-30T09:11:24;5.93;;;3.95;;
14732;SDS011;7457;50.960;6.830;2022-08-30T09:13:52;5.90;;;3.25;;
14732;SDS011;7457;50.960;6.830;2022-08-30T09:19:10;2.63;;;2.13;;
14732;SDS011;7457;50.960;6.830;2022-08-30T09:21:55;4.72;;;2.50;;
14732;SDS011;7457;50.960;6.830;2022-08-30T09:24:36;4.88;;;2.55;;
14732;SDS011;7457;50.960;6.830;2022-08-30T09:27:13;3.60;;;2.50;;
14732;SDS011;7457;50.960;6.830;2022-08-30T09:29:49;4.10;;;1.95;;
14732;SDS011;7457;50.960;6.830;2022-08-30T09:32:27;2.38;;;2.13;;
14732;SDS011;7457;50.960;6.830;2022-08-30T09:34:57;3.20;;;2.30;;
14732;SDS011;7457;50.960;6.830;2022-08-30T09:37:27;3.13;;;2.20;;
14732;SDS011;7457;50.960;6.830;2022-08-30T09:39:59;6.63;;;2.10;;
14732;SDS011;7457;50.960;6.830;2022-08-30T09:42:26;4.07;;;2.58;;
14732;SDS011;7457;50.960;6.830;2022-08-30T09:44:53;4.82;;;2.00;;
14732;SDS011;7457;50.960;6.830;2022-08-30T09:47:39;3.28;;;2.30;;
14732;SDS011;7457;50.960;6.830;2022-08-30T09:50:11;3.08;;;2.25;;
14732;SDS011;7457;50.960;6.830;2022-08-30T09:52:58;5.78;;;2.08;;
14732;SDS011;7457;50.960;6.830;2022-08-30T10:01:05;4.57;;;2.30;;
14732;SDS011;7457;50.960;6.830;2022-08-30T10:03:40;4.10;;;2.50;;
14732;SDS011;7457;50.960;6.830;2022-08-30T10:08:50;3.95;;;2.00;;
14732;SDS011;7457;50.960;6.830;2022-08-30T10:11:27;4.50;;;2.15;;
14732;SDS011;7457;50.960;6.830;2022-08-30T10:19:56;2.72;;;2.22;;
14732;SDS011;7457;50.960;6.830;2022-08-30T10:22:45;3.88;;;2.22;;
14732;SDS011;7457;50.960;6.830;2022-08-30T10:27:48;3.15;;;2.17;;
14732;SDS011;7457;50.960;6.830;2022-08-30T10:30:19;3.05;;;2.30;;
14732;SDS011;7457;50.960;6.830;2022-08-30T10:32:49;5.07;;;2.40;;
14732;SDS011;7457;50.960;6.830;2022-08-30T10:35:22;2.78;;;2.10;;
14732;SDS011;7457;50.960;6.830;2022-08-30T10:37:53;7.80;;;2.40;;
14732;SDS011;7457;50.960;6.830;2022-08-30T10:43:26;4.22;;;2.38;;
14732;SDS011;7457;50.960;6.830;2022-08-30T10:46:12;3.92;;;2.55;;
14732;SDS011;7457;50.960;6.830;2022-08-30T10:49:00;5.22;;;2.50;;
14732;SDS011;7457;50.960;6.830;2022-08-30T10:54:25;4.00;;;2.30;;
14732;SDS011;7457;50.960;6.830;2022-08-30T10:57:14;5.25;;;2.58;;
14732;SDS011;7457;50.960;6.830;2022-08-30T10:59:41;2.88;;;2.60;;
14732;SDS011;7457;50.960;6.830;2022-08-30T11:13:35;3.67;;;2.28;;
14732;SDS011;7457;50.960;6.830;2022-08-30T11:16:05;8.80;;;2.47;;
14732;SDS011;7457;50.960;6.830;2022-08-30T11:18:49;3.67;;;2.28;;
14732;SDS011;7457;50.960;6.830;2022-08-30T11:23:58;5.00;;;2.55;;
14732;SDS011;7457;50.960;6.830;2022-08-30T11:29:33;5.03;;;2.40;;
14732;SDS011;7457;50.960;6.830;2022-08-30T11:37:29;6.18;;;2.33;;
14732;SDS011;7457;50.960;6.830;2022-08-30T11:42:47;5.63;;;2.75;;
14732;SDS011;7457;50.960;6.830;2022-08-30T11:50:22;4.78;;;2.58;;
14732;SDS011;7457;50.960;6.830;2022-08-30T11:55:27;4.45;;;2.50;;
14732;SDS011;7457;50.960;6.830;2022-08-30T11:58:18;6.15;;;2.63;;
14732;SDS011;7457;50.960;6.830;2022-08-30T12:03:37;4.13;;;2.78;;
14732;SDS011;7457;50.960;6.830;2022-08-30T12:06:04;3.85;;;2.70;;
14732;SDS011;7457;50.960;6.830;2022-08-30T12:11:00;4.32;;;2.72;;
14732;SDS011;7457;50.960;6.830;2022-08-30T12:21:31;14.13;;;2.92;;
14732;SDS011;7457;50.960;6.830;2022-08-30T12:26:51;7.57;;;2.95;;
14732;SDS011;7457;50.960;6.830;2022-08-30T12:34:28;5.30;;;3.00;;
14732;SDS011;7457;50.960;6.830;2022-08-30T12:39:34;7.65;;;3.00;;
14732;SDS011;7457;50.960;6.830;2022-08-30T12:44:49;5.10;;;2.75;;
14732;SDS011;7457;50.960;6.830;2022-08-30T12:47:17;4.70;;;2.65;;
14732;SDS011;7457;50.960;6.830;2022-08-30T12:49:49;5.13;;;2.92;;
14732;SDS011;7457;50.960;6.830;2022-08-30T12:54:54;5.90;;;2.90;;
14732;SDS011;7457;50.960;6.830;2022-08-30T12:57:36;6.50;;;3.10;;
14732;SDS011;7457;50.960;6.830;2022-08-30T13:00:32;4.55;;;3.30;;
14732;SDS011;7457;50.960;6.830;2022-08-30T13:03:01;5.68;;;3.03;;
14732;SDS011;7457;50.960;6.830;2022-08-30T13:05:50;8.13;;;3.63;;
14732;SDS011;7457;50.960;6.830;2022-08-30T13:08:33;5.85;;;2.90;;
14732;SDS011;7457;50.960;6.830;2022-08-30T13:11:10;5.82;;;3.45;;
14732;SDS011;7457;50.960;6.830;2022-08-30T13:13:46;4.97;;;3.47;;
14732;SDS011;7457;50.960;6.830;2022-08-30T13:18:42;4.13;;;3.00;;
14732;SDS011;7457;50.960;6.830;2022-08-30T13:21:10;5.40;;;2.90;;
14732;SDS011;7457;50.960;6.830;2022-08-30T13:23:58;4.47;;;3.15;;
14732;SDS011;7457;50.960;6.830;2022-08-30T13:26:27;6.88;;;3.75;;
14732;SDS011;7457;50.960;6.830;2022-08-30T13:29:02;4.38;;;2.47;;
14732;SDS011;7457;50.960;6.830;2022-08-30T13:31:30;5.00;;;3.03;;
14732;SDS011;7457;50.960;6.830;2022-08-30T13:33:56;2.85;;;2.55;;
14732;SDS011;7457;50.960;6.830;2022-08-30T13:36:43;5.20;;;3.15;;
14732;SDS011;7457;50.960;6.830;2022-08-30T13:39:11;5.53;;;3.38;;
14732;SDS011;7457;50.960;6.830;2022-08-30T13:41:37;7.35;;;3.35;;
14732;SDS011;7457;50.960;6.830;2022-08-30T13:44:03;4.80;;;2.78;;
14732;SDS011;7457;50.960;6.830;2022-08-30T13:46:29;5.57;;;2.88;;
14732;SDS011;7457;50.960;6.830;2022-08-30T13:49:05;3.78;;;2.83;;
14732;SDS011;7457;50.960;6.830;2022-08-30T13:51:33;4.38;;;2.63;;
14732;SDS011;7457;50.960;6.830;2022-08-30T13:53:58;8.75;;;3.13;;
14732;SDS011;7457;50.960;6.830;2022-08-30T13:56:27;6.18;;;3.17;;
14732;SDS011;7457;50.960;6.830;2022-08-30T13:58:57;5.43;;;4.13;;
14732;SDS011;7457;50.960;6.830;2022-08-30T14:01:23;5.25;;;3.08;;
14732;SDS011;7457;50.960;6.830;2022-08-30T14:03:49;8.07;;;4.50;;
14732;SDS011;7457;50.960;6.830;2022-08-30T14:06:14;3.78;;;3.05;;
14732;SDS011;7457;50.960;6.830;2022-08-30T14:08:40;3.97;;;2.90;;
14732;SDS011;7457;50.960;6.830;2022-08-30T14:11:06;5.18;;;2.63;;
14732;SDS011;7457;50.960;6.830;2022-08-30T14:13:33;4.95;;;3.03;;
14732;SDS011;7457;50.960;6.830;2022-08-30T14:15:59;5.82;;;3.20;;
14732;SDS011;7457;50.960;6.830;2022-08-30T14:18:28;4.53;;;3.05;;
14732;SDS011;7457;50.960;6.830;2022-08-30T14:20:53;6.90;;;3.30;;
14732;SDS011;7457;50.960;6.830;2022-08-30T14:23:19;8.27;;;3.20;;
14732;SDS011;7457;50.960;6.830;2022-08-30T14:25:44;5.38;;;3.05;;
14732;SDS011;7457;50.960;6.830;2022-08-30T14:28:10;5.07;;;2.95;;
14732;SDS011;7457;50.960;6.830;2022-08-30T14:30:36;7.20;;;3.13;;
14732;SDS011;7457;50.960;6.830;2022-08-30T14:33:04;5.40;;;3.20;;
14732;SDS011;7457;50.960;6.830;2022-08-30T14:35:29;4.13;;;2.95;;
14732;SDS011;7457;50.960;6.830;2022-08-30T14:37:55;3.28;;;2.90;;
14732;SDS011;7457;50.960;6.830;2022-08-30T14:40:21;5.13;;;2.95;;
14732;SDS011;7457;50.960;6.830;2022-08-30T14:42:47;3.90;;;2.90;;
14732;SDS011;7457;50.960;6.830;2022-08-30T14:45:12;6.05;;;3.35;;
14732;SDS011;7457;50.960;6.830;2022-08-30T14:47:39;4.70;;;2.63;;
14732;SDS011;7457;50.960;6.830;2022-08-30T14:50:05;6.53;;;2.92;;
14732;SDS011;7457;50.960;6.830;2022-08-30T14:52:31;4.32;;;3.70;;
14732;SDS011;7457;50.960;6.830;2022-08-30T14:54:57;4.18;;;2.90;;
14732;SDS011;7457;50.960;6.830;2022-08-30T14:57:24;5.57;;;2.78;;
14732;SDS011;7457;50.960;6.830;2022-08-30T14:59:50;5.35;;;2.75;;
14732;SDS011;7457;50.960;6.830;2022-08-30T15:02:16;5.07;;;3.00;;
14732;SDS011;7457;50.960;6.830;2022-08-30T15:04:42;2.90;;;2.60;;
14732;SDS011;7457;50.960;6.830;2022-08-30T15:07:08;4.85;;;3.10;;
14732;SDS011;7457;50.960;6.830;2022-08-30T15:09:34;6.53;;;3.10;;
14732;SDS011;7457;50.960;6.830;2022-08-30T15:12:00;4.82;;;3.20;;
14732;SDS011;7457;50.960;6.830;2022-08-30T15:14:28;4.10;;;2.50;;
14732;SDS011;7457;50.960;6.830;2022-08-30T15:16:55;4.78;;;2.95;;
14732;SDS011;7457;50.960;6.830;2022-08-30T15:19:22;5.60;;;2.92;;
14732;SDS011;7457;50.960;6.830;2022-08-30T15:21:49;8.20;;;3.42;;
14732;SDS011;7457;50.960;6.830;2022-08-30T15:24:17;6.68;;;2.90;;
14732;SDS011;7457;50.960;6.830;2022-08-30T15:26:44;4.85;;;3.20;;
14732;SDS011;7457;50.960;6.830;2022-08-30T15:29:11;7.75;;;3.15;;
14732;SDS011;7457;50.960;6.830;2022-08-30T15:31:39;5.10;;;3.03;;
14732;SDS011;7457;50.960;6.830;2022-08-30T15:34:05;3.72;;;2.88;;
14732;SDS011;7457;50.960;6.830;2022-08-30T15:36:34;5.47;;;2.75;;
14732;SDS011;7457;50.960;6.830;2022-08-30T15:39:00;5.35;;;3.10;;
14732;SDS011;7457;50.960;6.830;2022-08-30T15:41:26;3.75;;;2.97;;
14732;SDS011;7457;50.960;6.830;2022-08-30T15:43:53;2.97;;;2.70;;
14732;SDS011;7457;50.960;6.830;2022-08-30T15:46:29;3.38;;;2.95;;
14732;SDS011;7457;50.960;6.830;2022-08-30T15:49:00;3.38;;;2.90;;
14732;SDS011;7457;50.960;6.830;2022-08-30T15:51:30;7.47;;;4.15;;
14732;SDS011;7457;50.960;6.830;2022-08-30T15:53:57;6.43;;;2.83;;
14732;SDS011;7457;50.960;6.830;2022-08-30T15:56:22;6.38;;;2.60;;
14732;SDS011;7457;50.960;6.830;2022-08-30T15:58:48;5.80;;;3.45;;
14732;SDS011;7457;50.960;6.830;2022-08-30T16:01:14;4.70;;;3.03;;
14732;SDS011;7457;50.960;6.830;2022-08-30T16:03:40;3.92;;;2.90;;
14732;SDS011;7457;50.960;6.830;2022-08-30T16:06:10;3.97;;;3.15;;
14732;SDS011;7457;50.960;6.830;2022-08-30T16:08:37;7.53;;;2.60;;
14732;SDS011;7457;50.960;6.830;2022-08-30T16:11:04;5.65;;;2.95;;
14732;SDS011;7457;50.960;6.830;2022-08-30T16:13:30;3.33;;;2.55;;
14732;SDS011;7457;50.960;6.830;2022-08-30T16:15:59;4.18;;;2.78;;
14732;SDS011;7457;50.960;6.830;2022-08-30T16:18:25;5.25;;;2.83;;
14732;SDS011;7457;50.960;6.830;2022-08-30T16:21:00;3.95;;;3.05;;
14732;SDS011;7457;50.960;6.830;2022-08-30T16:23:30;5.10;;;2.88;;
14732;SDS011;7457;50.960;6.830;2022-08-30T16:25:56;5.95;;;2.90;;
14732;SDS011;7457;50.960;6.830;2022-08-30T16:28:21;4.13;;;2.80;;
14732;SDS011;7457;50.960;6.830;2022-08-30T16:30:47;4.03;;;2.80;;
14732;SDS011;7457;50.960;6.830;2022-08-30T16:33:13;4.88;;;2.60;;
14732;SDS011;7457;50.960;6.830;2022-08-30T16:35:38;3.45;;;2.60;;
14732;SDS011;7457;50.960;6.830;2022-08-30T16:38:04;3.42;;;2.95;;
14732;SDS011;7457;50.960;6.830;2022-08-30T16:40:29;4.88;;;2.97;;
14732;SDS011;7457;50.960;6.830;2022-08-30T16:42:55;4.55;;;2.97;;